Al Taqaddum, Iraq

1:52 PM AST on July 30, 2016 (GMT +0300)
Baghdad International Air | | Change Station

Elev 115 ft 33.26 °N, 44.23 °E | Updated 22 minutes ago

Clear
Clear
113 °F
Feels Like 113 °F
N
15
Wind Variable Wind from West

Today
High -- | Low -- °F
--% Chance of Precip.
Yesterday
High -- | Low -- °F
Precip. -- in
Pressure 29.50 in
Visibility -9999.0 miles
Clouds
Dew Point 43 °F
Humidity 10%
Rainfall 0.00 in
Snow Depth Not available.
5:17 AM 7:06 PM
Waning Crescent, 14% visible
METAR ORBI 301030Z 28013KT 240V310 CAVOK 45/06 Q0999
Pressure 29.50 in
Visibility -9999.0 miles
Clouds
Dew Point 43 °F
Humidity 10%
Rainfall 0.00 in
Snow Depth Not available.
5:17 AM 7:06 PM
Waning Crescent, 14% visible
METAR ORBI 301030Z 28013KT 240V310 CAVOK 45/06 Q0999

10-Day Weather Forecast

No radar image for this location.
×

Almanac

Astronomy

Jul. 30, 2016 Rise Set
Actual Time
Civil Twilight
Nautical Twilight
Astronomical Twilight
Moon
Length of Visible Light
Length of Day
Tomorrow will be .
, % of the Moon is Illuminated

Today's Extremes

Country Highs Country Lows

Community

WunderPhotos

Upload Photos

1,928,530 photos uploaded!

WunderBlog® & News

Nearby

Air Quality

  Air Quality AQ Index Pollutant
Not available.

Snow Depth

Station Depth Elevation

Earthquake Activity

City Distance Mag. Time & Date
Minimum magnitude displayed is 2.5.

Coastal Water Temperatures

Place Temperature

Stations

Nearby Weather Stations

Station Location Temp. Windchill Dew Point Humidity Wind Precip. Elev Updated Type